Time;durP1;ratioP1;P1;durP2;ratioP2;P2;SDS_P1;SDS_P2;PMS_P1;PMS_P2;Temp;Humidity;BMP_temperature;BMP_pressure;BME280_temperature;BME280_humidity;BME280_pressure;Samples;Min_cycle;Max_cycle;Signal;HPM_P1;HPM_P2
2023/03/26 00:09:54;;;;;;;3.73;0.80;;;;;;;7.78;100.00;97385.75;21949492;27;20039;-51
2023/03/26 00:19:58;;;;;;;2.27;0.60;;;;;;;7.85;100.00;97380.13;21975007;27;20040;-54
2023/03/26 00:30:02;;;;;;;1.57;0.70;;;;;;;7.84;100.00;97375.00;21974184;27;20033;-56
2023/03/26 00:40:07;;;;;;;5.65;0.90;;;;;;;7.86;100.00;97357.53;21974378;27;20102;-56
2023/03/26 00:50:14;;;;;;;3.63;1.03;;;;;;;7.82;100.00;97339.47;21974108;27;20025;-54
2023/03/26 01:00:17;;;;;;;2.00;0.47;;;;;;;7.75;100.00;97329.72;21973747;27;20077;-55
2023/03/26 01:10:21;;;;;;;3.10;0.70;;;;;;;7.67;100.00;97306.00;21953396;27;20033;-56
2023/03/26 01:20:29;;;;;;;2.80;0.83;;;;;;;7.58;100.00;97294.94;21972961;27;20020;-52
2023/03/26 01:31:24;;;;;;;4.17;0.80;;;;;;;7.53;100.00;97277.94;21972517;27;20330;-55
2023/03/26 01:41:46;;;;;;;2.90;0.70;;;;;;;7.54;100.00;97237.31;21780114;27;20073;-55
2023/03/26 01:51:50;;;;;;;1.10;0.63;;;;;;;7.46;100.00;97189.41;21762091;27;20355;-55
2023/03/26 02:02:00;;;;;;;3.47;0.83;;;;;;;7.39;100.00;97168.13;21779912;27;20026;-54
2023/03/26 02:12:04;;;;;;;4.57;1.13;;;;;;;7.34;100.00;97141.19;21950355;27;20060;-55
2023/03/26 02:22:09;;;;;;;1.70;0.70;;;;;;;7.32;100.00;97121.84;21951565;27;20423;-53
2023/03/26 02:32:12;;;;;;;2.17;0.70;;;;;;;7.33;100.00;97123.47;21971121;27;20025;-53
2023/03/26 02:42:15;;;;;;;3.83;0.80;;;;;;;7.38;100.00;97107.31;21970675;27;20040;-54
2023/03/26 02:52:17;;;;;;;2.47;0.90;;;;;;;7.38;100.00;97082.31;21970406;27;20029;-53
2023/03/26 03:02:23;;;;;;;1.77;0.60;;;;;;;7.36;100.00;97079.06;21970012;27;20016;-55
2023/03/26 03:12:25;;;;;;;1.87;0.87;;;;;;;7.35;100.00;97064.03;21969761;27;20414;-52
2023/03/26 03:22:28;;;;;;;2.10;0.70;;;;;;;7.38;100.00;97040.09;21969567;27;20030;-56
2023/03/26 03:32:30;;;;;;;4.00;0.90;;;;;;;7.34;100.00;97014.78;21969205;27;20323;-55
2023/03/26 03:42:33;;;;;;;1.57;0.70;;;;;;;7.32;100.00;96983.84;21969047;27;20025;-56
2023/03/26 03:52:35;;;;;;;1.83;0.77;;;;;;;7.32;100.00;96965.84;21969097;27;20038;-56
2023/03/26 04:02:37;;;;;;;3.03;0.50;;;;;;;7.34;100.00;96934.12;21968526;27;20025;-56
2023/03/26 04:12:40;;;;;;;1.83;0.43;;;;;;;7.40;100.00;96916.94;21968438;27;20025;-55
2023/03/26 04:22:42;;;;;;;2.60;0.80;;;;;;;7.43;100.00;96908.31;21968603;27;20020;-56
2023/03/26 04:32:51;;;;;;;2.13;0.70;;;;;;;7.47;100.00;96905.91;21876129;27;20042;-56
2023/03/26 04:43:11;;;;;;;5.93;1.20;;;;;;;7.55;100.00;96885.72;21876220;27;20067;-55
2023/03/26 04:53:23;;;;;;;2.53;0.80;;;;;;;7.64;100.00;96884.09;21877625;27;20022;-54
2023/03/26 05:03:31;;;;;;;4.57;1.00;;;;;;;7.63;100.00;96874.41;21881500;27;20041;-54
2023/03/26 05:13:34;;;;;;;2.90;0.97;;;;;;;7.62;100.00;96827.88;21881636;27;20036;-56
2023/03/26 05:23:36;;;;;;;1.37;0.80;;;;;;;7.61;100.00;96812.81;21882911;27;20021;-54
2023/03/26 05:33:38;;;;;;;7.47;1.10;;;;;;;7.58;100.00;96785.66;21953416;27;20045;-56
2023/03/26 05:43:43;;;;;;;2.87;1.00;;;;;;;7.55;100.00;96767.34;21972803;27;20299;-56
2023/03/26 05:53:46;;;;;;;2.53;1.17;;;;;;;7.55;100.00;96729.69;21972594;27;20022;-53
2023/03/26 06:03:49;;;;;;;5.30;1.30;;;;;;;7.58;100.00;96715.72;21971590;27;20036;-52
2023/03/26 06:13:52;;;;;;;3.90;1.10;;;;;;;7.62;100.00;96711.41;21951436;27;20037;-56
2023/03/26 06:23:55;;;;;;;1.70;0.77;;;;;;;7.70;100.00;96705.44;21971041;27;20112;-54
2023/03/26 06:33:57;;;;;;;2.73;0.97;;;;;;;7.71;100.00;96708.94;21971035;27;20040;-56
2023/03/26 06:44:00;;;;;;;3.70;1.20;;;;;;;7.77;100.00;96716.72;21970491;27;20017;-56
2023/03/26 06:54:02;;;;;;;2.67;1.20;;;;;;;7.87;100.00;96693.53;21970043;27;20078;-56
2023/03/26 07:04:05;;;;;;;2.60;1.00;;;;;;;8.09;100.00;96677.00;21949852;27;20078;-54
2023/03/26 07:14:07;;;;;;;5.57;1.10;;;;;;;8.35;100.00;96669.56;21970016;27;20025;-55
2023/03/26 07:24:10;;;;;;;5.13;1.23;;;;;;;8.78;100.00;96669.81;21969458;27;20039;-56
2023/03/26 07:34:39;;;;;;;3.87;1.30;;;;;;;9.05;100.00;96687.34;21969634;27;20029;-56
2023/03/26 07:45:04;;;;;;;1.57;0.50;;;;;;;9.12;100.00;96662.75;21969159;27;20044;-56
2023/03/26 07:55:07;;;;;;;2.53;0.67;;;;;;;9.72;100.00;96661.56;21968704;27;20040;-57
2023/03/26 08:05:25;;;;;;;5.17;1.70;;;;;;;10.47;100.00;96649.16;21968686;27;20025;-57
2023/03/26 08:15:48;;;;;;;1.23;0.60;;;;;;;10.53;100.00;96668.81;21968646;27;20033;-56
2023/03/26 08:26:03;;;;;;;1.53;0.70;;;;;;;10.40;100.00;96730.63;21968215;27;20421;-56
2023/03/26 08:36:08;;;;;;;3.03;1.13;;;;;;;9.62;100.00;96727.22;21971845;27;20076;-57
2023/03/26 08:46:31;;;;;;;1.27;0.60;;;;;;;9.83;100.00;96725.09;21954346;27;20119;-56
2023/03/26 08:57:00;;;;;;;2.57;0.80;;;;;;;10.27;100.00;96721.31;21973538;27;20067;-55
2023/03/26 09:07:48;;;;;;;3.47;1.00;;;;;;;10.70;100.00;96725.84;21973556;27;20025;-56
2023/03/26 09:18:30;;;;;;;4.93;1.10;;;;;;;10.63;100.00;96725.41;21973235;27;20028;-53
2023/03/26 09:28:58;;;;;;;2.23;0.70;;;;;;;11.73;95.62;96739.53;21972710;27;20025;-52
2023/03/26 09:39:22;;;;;;;2.03;0.77;;;;;;;11.78;100.00;96761.09;21972880;27;20055;-57
2023/03/26 09:49:43;;;;;;;1.97;0.80;;;;;;;12.07;92.09;96744.56;21972214;27;20402;-53
2023/03/26 10:00:14;;;;;;;4.05;0.50;;;;;;;12.14;79.42;96731.44;21971359;27;20052;-57
2023/03/26 10:10:21;;;;;;;2.53;0.63;;;;;;;12.45;73.05;96732.69;21971548;27;20034;-56
2023/03/26 10:20:57;;;;;;;4.37;0.90;;;;;;;12.69;75.90;96721.56;21971392;27;20059;-57
2023/03/26 10:31:29;;;;;;;2.67;0.55;;;;;;;12.92;68.21;96732.41;21945160;27;20425;-55
2023/03/26 10:42:01;;;;;;;3.22;0.80;;;;;;;12.98;62.32;96733.91;21962820;27;20033;-56
2023/03/26 10:52:14;;;;;;;4.03;0.60;;;;;;;13.62;61.57;96717.38;21942078;27;20032;-56
2023/03/26 11:02:51;;;;;;;2.70;0.60;;;;;;;13.43;59.46;96723.03;21949887;27;20044;-56
2023/03/26 11:13:05;;;;;;;1.65;0.60;;;;;;;14.00;60.73;96721.50;21969869;27;20040;-57
2023/03/26 11:23:23;;;;;;;2.47;0.50;;;;;;;15.85;54.07;96699.25;21969220;27;20341;-57
2023/03/26 11:33:40;;;;;;;5.93;0.50;;;;;;;16.64;50.82;96715.13;21786599;27;20054;-57
2023/03/26 11:43:59;;;;;;;1.92;0.55;;;;;;;16.54;45.69;96707.34;21786424;27;20037;-57
2023/03/26 11:54:04;;;;;;;3.80;0.60;;;;;;;15.53;44.15;96704.19;21788096;27;20022;-56
2023/03/26 12:04:12;;;;;;;2.60;0.45;;;;;;;16.18;45.49;96675.97;21787929;27;20077;-56
2023/03/26 12:14:19;;;;;;;2.55;0.50;;;;;;;15.91;51.09;96664.47;21791770;27;20108;-57
2023/03/26 12:24:28;;;;;;;1.60;0.45;;;;;;;15.69;49.01;96673.66;21811990;27;20033;-55
2023/03/26 12:34:34;;;;;;;2.17;0.50;;;;;;;14.71;56.08;96685.13;21974219;27;20145;-56
2023/03/26 12:44:50;;;;;;;2.85;0.43;;;;;;;15.72;49.09;96659.41;21974135;27;20029;-55
2023/03/26 12:55:34;;;;;;;1.48;0.30;;;;;;;15.71;50.83;96644.16;21972869;27;20025;-55
2023/03/26 13:05:59;;;;;;;1.85;0.20;;;;;;;15.86;50.44;96651.78;21972772;27;20083;-56
2023/03/26 13:16:23;;;;;;;1.83;0.45;;;;;;;15.14;55.43;96599.84;21941492;27;20060;-56
2023/03/26 13:26:45;;;;;;;1.23;0.40;;;;;;;15.29;50.30;96578.66;21972357;27;20056;-56
2023/03/26 13:36:59;;;;;;;1.45;0.40;;;;;;;15.18;55.54;96561.88;21972554;27;20040;-57
2023/03/26 13:47:10;;;;;;;3.57;0.30;;;;;;;14.22;55.21;96642.56;21972580;27;20029;-56
2023/03/26 13:57:34;;;;;;;1.87;0.40;;;;;;;11.30;100.00;96729.75;21971814;27;20361;-51
2023/03/26 14:07:51;;;;;;;2.00;0.40;;;;;;;10.64;100.00;96710.81;21971720;27;20063;-55
2023/03/26 14:18:00;;;;;;;0.20;0.10;;;;;;;10.36;99.37;96697.19;21971414;27;20069;-53
2023/03/26 14:29:09;;;;;;;0.57;0.27;;;;;;;11.07;97.62;96712.56;21970575;27;20345;-55
2023/03/26 14:39:39;;;;;;;2.00;0.70;;;;;;;11.55;94.12;96719.56;21906822;27;20039;-56
2023/03/26 14:50:10;;;;;;;1.77;0.50;;;;;;;11.85;93.64;96743.38;21951063;27;20072;-53
2023/03/26 15:00:50;;;;;;;0.33;0.00;;;;;;;11.34;93.51;96764.03;21970505;27;20033;-55
2023/03/26 15:11:19;;;;;;;0.00;0.00;;;;;;;9.80;100.00;96804.78;21969716;27;20104;-57
2023/03/26 15:22:00;;;;;;;0.60;0.17;;;;;;;9.02;100.00;96798.47;21949772;27;20024;-55
2023/03/26 15:32:16;;;;;;;0.20;0.20;;;;;;;7.67;100.00;96843.19;21969325;27;20033;-51
2023/03/26 15:43:05;;;;;;;0.30;0.17;;;;;;;6.72;100.00;96737.84;21969217;27;20040;-56
2023/03/26 15:53:46;;;;;;;0.10;0.03;;;;;;;6.79;100.00;96738.37;21937027;27;20036;-56
2023/03/26 16:04:25;;;;;;;0.07;0.00;;;;;;;7.80;100.00;96751.12;21968768;27;20028;-55
2023/03/26 16:14:33;;;;;;;0.97;0.20;;;;;;;8.63;100.00;96735.41;21968938;27;20079;-56
2023/03/26 16:24:45;;;;;;;0.30;0.00;;;;;;;8.79;100.00;96736.06;21967825;27;20337;-56
2023/03/26 16:34:58;;;;;;;0.97;0.30;;;;;;;8.51;100.00;96740.34;21968720;27;20108;-56
2023/03/26 16:45:22;;;;;;;0.10;0.00;;;;;;;8.19;100.00;96765.00;21968412;27;20306;-56
2023/03/26 16:55:37;;;;;;;0.97;0.13;;;;;;;8.04;100.00;96798.97;21950980;27;20033;-55
2023/03/26 17:05:49;;;;;;;0.63;0.10;;;;;;;8.03;100.00;96796.53;21954352;27;20096;-56
2023/03/26 17:16:10;;;;;;;0.13;0.10;;;;;;;8.00;100.00;96797.91;21973768;27;20034;-56
2023/03/26 17:26:20;;;;;;;0.00;0.00;;;;;;;7.87;100.00;96785.03;21972729;27;20020;-56
2023/03/26 17:36:40;;;;;;;0.83;0.20;;;;;;;7.76;100.00;96768.91;21972881;27;20041;-56
2023/03/26 17:46:45;;;;;;;0.37;0.13;;;;;;;7.35;100.00;96755.56;21972400;27;20025;-56
2023/03/26 17:56:51;;;;;;;0.73;0.20;;;;;;;7.14;100.00;96744.03;21953239;27;20043;-56
2023/03/26 18:07:14;;;;;;;0.60;0.20;;;;;;;6.94;100.00;96734.09;21971824;27;20043;-54
2023/03/26 18:17:17;;;;;;;0.47;0.20;;;;;;;6.72;100.00;96719.03;21971460;27;20029;-54
2023/03/26 18:27:21;;;;;;;1.00;0.40;;;;;;;6.54;100.00;96712.31;21970742;27;20029;-56
2023/03/26 18:37:33;;;;;;;1.05;0.68;;;;;;;6.49;100.00;96716.87;21951465;27;20041;-54
2023/03/26 18:47:37;;;;;;;3.03;0.70;;;;;;;6.53;100.00;96734.09;21970723;27;20108;-56
2023/03/26 18:57:42;;;;;;;2.03;0.57;;;;;;;6.60;100.00;96721.19;21970084;27;20029;-56
2023/03/26 19:07:46;;;;;;;1.93;0.67;;;;;;;6.64;100.00;96738.37;21970210;27;20107;-55
2023/03/26 19:17:58;;;;;;;2.10;0.40;;;;;;;6.79;100.00;96792.13;21969549;27;20037;-54
2023/03/26 19:28:01;;;;;;;0.20;0.10;;;;;;;6.48;100.00;96790.47;21969648;27;20025;-53
2023/03/26 19:38:25;;;;;;;0.83;0.30;;;;;;;6.25;100.00;96763.81;21969184;27;20036;-56
2023/03/26 19:48:36;;;;;;;0.60;0.10;;;;;;;5.91;100.00;96755.38;21969815;27;20024;-54
2023/03/26 19:58:51;;;;;;;1.50;0.10;;;;;;;5.70;100.00;96728.47;21968839;27;20088;-54
2023/03/26 20:08:54;;;;;;;0.60;0.20;;;;;;;5.58;100.00;96735.91;21969106;27;20026;-54
2023/03/26 20:19:01;;;;;;;0.60;0.10;;;;;;;5.53;100.00;96735.88;21968669;27;20098;-55
2023/03/26 20:29:03;;;;;;;0.20;0.10;;;;;;;5.47;100.00;96736.91;21950295;27;20025;-55
2023/03/26 20:39:08;;;;;;;0.93;0.00;;;;;;;5.37;100.00;96740.34;21955167;27;20059;-52
2023/03/26 20:49:11;;;;;;;1.60;0.23;;;;;;;5.37;100.00;96780.53;21954412;27;20441;-56
2023/03/26 20:59:20;;;;;;;0.70;0.37;;;;;;;5.45;100.00;96784.63;21953937;27;20311;-56
2023/03/26 21:09:24;;;;;;;0.93;0.30;;;;;;;5.50;100.00;96790.03;21973880;27;20410;-56
2023/03/26 21:19:27;;;;;;;0.77;0.10;;;;;;;5.50;100.00;96784.66;21953719;27;20087;-54
2023/03/26 21:29:30;;;;;;;0.90;0.20;;;;;;;5.34;100.00;96787.22;21952779;27;20049;-55
2023/03/26 21:39:33;;;;;;;1.77;0.37;;;;;;;5.15;100.00;96794.06;21935472;27;20440;-54
2023/03/26 21:49:37;;;;;;;1.20;0.20;;;;;;;5.06;100.00;96794.53;21972385;27;20076;-53
2023/03/26 21:59:45;;;;;;;1.03;0.10;;;;;;;5.00;100.00;96797.44;21972484;27;20112;-56
2023/03/26 22:09:48;;;;;;;0.40;0.20;;;;;;;4.85;100.00;96790.91;21972239;27;20425;-56
2023/03/26 22:19:50;;;;;;;1.10;0.20;;;;;;;4.73;100.00;96796.41;21951554;27;20323;-56
2023/03/26 22:29:53;;;;;;;1.17;0.30;;;;;;;4.76;100.00;96805.81;21971786;27;20425;-56
2023/03/26 22:39:56;;;;;;;1.80;0.20;;;;;;;4.85;100.00;96815.00;21970976;27;20405;-55
2023/03/26 22:49:59;;;;;;;3.10;0.20;;;;;;;4.94;100.00;96831.41;21950379;27;20029;-55
2023/03/26 23:00:15;;;;;;;1.27;0.30;;;;;;;5.06;100.00;96858.03;21950833;27;20329;-55
2023/03/26 23:10:17;;;;;;;1.93;0.27;;;;;;;5.19;100.00;96872.88;21970655;27;20044;-55
2023/03/26 23:20:20;;;;;;;1.07;0.30;;;;;;;5.28;100.00;96874.03;21970196;27;20030;-56
2023/03/26 23:30:23;;;;;;;1.77;0.30;;;;;;;5.45;100.00;96883.81;21969345;27;20024;-55
2023/03/26 23:40:25;;;;;;;1.10;0.20;;;;;;;5.73;100.00;96906.84;21969487;27;20020;-57
2023/03/26 23:50:28;;;;;;;0.97;0.47;;;;;;;5.77;100.00;96911.41;21969019;27;20025;-53
